sensor_id;sensor_type;location;lat;lon;timestamp;pressure;altitude;pressure_sealevel;temperature;humidity
63903;BME280;50072;50.678;13.938;2023-12-22T00:01:36;97078.72;;;4.39;100.00
63903;BME280;50072;50.678;13.938;2023-12-22T00:04:04;97096.53;;;4.35;100.00
63903;BME280;50072;50.678;13.938;2023-12-22T00:06:34;97084.28;;;4.32;100.00
63903;BME280;50072;50.678;13.938;2023-12-22T00:09:06;97111.16;;;4.44;100.00
63903;BME280;50072;50.678;13.938;2023-12-22T00:11:36;97100.50;;;4.45;100.00
63903;BME280;50072;50.678;13.938;2023-12-22T00:14:07;97101.41;;;4.44;100.00
63903;BME280;50072;50.678;13.938;2023-12-22T00:16:37;97102.31;;;4.45;100.00
63903;BME280;50072;50.678;13.938;2023-12-22T00:19:06;97104.28;;;4.40;100.00
63903;BME280;50072;50.678;13.938;2023-12-22T00:21:35;97103.34;;;4.41;100.00
63903;BME280;50072;50.678;13.938;2023-12-22T00:24:07;97111.28;;;4.41;100.00
63903;BME280;50072;50.678;13.938;2023-12-22T00:26:36;97100.84;;;4.38;100.00
63903;BME280;50072;50.678;13.938;2023-12-22T00:29:08;97112.53;;;4.32;100.00
63903;BME280;50072;50.678;13.938;2023-12-22T00:31:35;97119.59;;;4.31;100.00
63903;BME280;50072;50.678;13.938;2023-12-22T00:34:05;97099.19;;;4.35;100.00
63903;BME280;50072;50.678;13.938;2023-12-22T00:36:36;97113.88;;;4.42;100.00
63903;BME280;50072;50.678;13.938;2023-12-22T00:39:05;97111.16;;;4.44;100.00
63903;BME280;50072;50.678;13.938;2023-12-22T00:41:36;97112.63;;;4.51;100.00
63903;BME280;50072;50.678;13.938;2023-12-22T00:44:06;97137.38;;;4.50;100.00
63903;BME280;50072;50.678;13.938;2023-12-22T00:46:37;97130.06;;;4.57;100.00
63903;BME280;50072;50.678;13.938;2023-12-22T00:49:04;97125.66;;;4.56;100.00
63903;BME280;50072;50.678;13.938;2023-12-22T00:51:36;97145.03;;;4.58;100.00
63903;BME280;50072;50.678;13.938;2023-12-22T00:54:05;97109.06;;;4.52;100.00
63903;BME280;50072;50.678;13.938;2023-12-22T00:56:37;97126.06;;;4.46;100.00
63903;BME280;50072;50.678;13.938;2023-12-22T00:59:05;97118.44;;;4.39;100.00
63903;BME280;50072;50.678;13.938;2023-12-22T01:01:34;97135.13;;;4.41;100.00
63903;BME280;50072;50.678;13.938;2023-12-22T01:04:06;97128.09;;;4.40;100.00
63903;BME280;50072;50.678;13.938;2023-12-22T01:06:39;97116.47;;;4.44;100.00
63903;BME280;50072;50.678;13.938;2023-12-22T01:09:06;97144.53;;;4.48;100.00
63903;BME280;50072;50.678;13.938;2023-12-22T01:11:36;97145.47;;;4.47;100.00
63903;BME280;50072;50.678;13.938;2023-12-22T01:14:07;97145.25;;;4.52;100.00
63903;BME280;50072;50.678;13.938;2023-12-22T01:16:35;97146.16;;;4.52;100.00
63903;BME280;50072;50.678;13.938;2023-12-22T01:19:07;97139.06;;;4.53;100.00
63903;BME280;50072;50.678;13.938;2023-12-22T01:21:36;97146.16;;;4.52;100.00
63903;BME280;50072;50.678;13.938;2023-12-22T01:24:07;97147.75;;;4.56;100.00
63903;BME280;50072;50.678;13.938;2023-12-22T01:26:35;97132.09;;;4.50;100.00
63903;BME280;50072;50.678;13.938;2023-12-22T01:29:02;97138.19;;;4.52;100.00
63903;BME280;50072;50.678;13.938;2023-12-22T01:31:36;97153.97;;;4.55;100.00
63903;BME280;50072;50.678;13.938;2023-12-22T01:34:07;97146.00;;;4.55;100.00
63903;BME280;50072;50.678;13.938;2023-12-22T01:36:36;97140.72;;;4.55;100.00
63903;BME280;50072;50.678;13.938;2023-12-22T01:39:06;97137.38;;;4.50;100.00
63903;BME280;50072;50.678;13.938;2023-12-22T01:41:36;97127.91;;;4.44;100.00
63903;BME280;50072;50.678;13.938;2023-12-22T01:44:05;97121.88;;;4.41;100.00
63903;BME280;50072;50.678;13.938;2023-12-22T01:46:34;97147.69;;;4.36;100.00
63903;BME280;50072;50.678;13.938;2023-12-22T01:49:06;97147.13;;;4.27;100.00
63903;BME280;50072;50.678;13.938;2023-12-22T01:51:37;97138.53;;;4.22;100.00
63903;BME280;50072;50.678;13.938;2023-12-22T01:54:06;97138.47;;;4.24;100.00
63903;BME280;50072;50.678;13.938;2023-12-22T01:56:36;97159.66;;;4.24;100.00
63903;BME280;50072;50.678;13.938;2023-12-22T01:59:06;97180.13;;;4.19;100.00
63903;BME280;50072;50.678;13.938;2023-12-22T02:01:35;97152.50;;;4.04;100.00
63903;BME280;50072;50.678;13.938;2023-12-22T02:04:05;97163.56;;;3.91;100.00
63903;BME280;50072;50.678;13.938;2023-12-22T02:06:37;97153.41;;;3.80;100.00
63903;BME280;50072;50.678;13.938;2023-12-22T02:09:06;97163.16;;;3.78;100.00
63903;BME280;50072;50.678;13.938;2023-12-22T02:11:38;97147.22;;;3.80;100.00
63903;BME280;50072;50.678;13.938;2023-12-22T02:14:06;97120.66;;;3.83;100.00
63903;BME280;50072;50.678;13.938;2023-12-22T02:16:52;97125.09;;;3.83;100.00
63903;BME280;50072;50.678;13.938;2023-12-22T02:22:07;97164.91;;;3.79;100.00
63903;BME280;50072;50.678;13.938;2023-12-22T02:24:37;97163.09;;;3.80;100.00
63903;BME280;50072;50.678;13.938;2023-12-22T02:27:09;97167.22;;;3.87;100.00
63903;BME280;50072;50.678;13.938;2023-12-22T02:30:06;97162.97;;;3.83;100.00
63903;BME280;50072;50.678;13.938;2023-12-22T02:32:38;97169.59;;;3.71;100.00
63903;BME280;50072;50.678;13.938;2023-12-22T02:35:36;97166.69;;;3.55;100.00
63903;BME280;50072;50.678;13.938;2023-12-22T02:38:06;97162.00;;;3.38;100.00
63903;BME280;50072;50.678;13.938;2023-12-22T02:40:36;97169.03;;;3.14;100.00
63903;BME280;50072;50.678;13.938;2023-12-22T02:43:08;97170.00;;;2.86;100.00
63903;BME280;50072;50.678;13.938;2023-12-22T02:45:34;97168.91;;;2.67;100.00
63903;BME280;50072;50.678;13.938;2023-12-22T02:48:06;97162.00;;;2.63;100.00
63903;BME280;50072;50.678;13.938;2023-12-22T02:50:38;97162.31;;;2.53;100.00
63903;BME280;50072;50.678;13.938;2023-12-22T02:53:06;97173.69;;;2.55;100.00
63903;BME280;50072;50.678;13.938;2023-12-22T02:55:38;97162.31;;;2.53;100.00
63903;BME280;50072;50.678;13.938;2023-12-22T02:58:05;97174.81;;;2.48;100.00
63903;BME280;50072;50.678;13.938;2023-12-22T03:00:36;97170.91;;;2.60;100.00
63903;BME280;50072;50.678;13.938;2023-12-22T03:03:01;97171.56;;;2.67;100.00
63903;BME280;50072;50.678;13.938;2023-12-22T03:05:35;97179.94;;;2.80;100.00
63903;BME280;50072;50.678;13.938;2023-12-22T03:08:06;97168.25;;;2.87;100.00
63903;BME280;50072;50.678;13.938;2023-12-22T03:10:37;97171.50;;;2.93;100.00
63903;BME280;50072;50.678;13.938;2023-12-22T03:13:06;97162.56;;;2.98;100.00
63903;BME280;50072;50.678;13.938;2023-12-22T03:15:35;97185.31;;;3.02;100.00
63903;BME280;50072;50.678;13.938;2023-12-22T03:18:07;97186.41;;;3.21;100.00
63903;BME280;50072;50.678;13.938;2023-12-22T03:20:35;97163.34;;;3.26;100.00
63903;BME280;50072;50.678;13.938;2023-12-22T03:23:05;97174.34;;;3.14;100.00
63903;BME280;50072;50.678;13.938;2023-12-22T03:25:38;97165.50;;;3.15;100.00
63903;BME280;50072;50.678;13.938;2023-12-22T03:28:05;97161.00;;;3.17;100.00
63903;BME280;50072;50.678;13.938;2023-12-22T03:30:38;97146.16;;;3.13;100.00
63903;BME280;50072;50.678;13.938;2023-12-22T03:33:05;97139.06;;;3.15;100.00
63903;BME280;50072;50.678;13.938;2023-12-22T03:35:37;97161.47;;;3.28;100.00
63903;BME280;50072;50.678;13.938;2023-12-22T03:38:03;97164.91;;;3.31;100.00
63903;BME280;50072;50.678;13.938;2023-12-22T03:40:36;97160.84;;;3.22;100.00
63903;BME280;50072;50.678;13.938;2023-12-22T03:43:07;97169.09;;;3.13;100.00
63903;BME280;50072;50.678;13.938;2023-12-22T03:45:38;97163.28;;;3.03;100.00
63903;BME280;50072;50.678;13.938;2023-12-22T03:48:06;97147.66;;;2.97;100.00
63903;BME280;50072;50.678;13.938;2023-12-22T03:50:37;97138.66;;;3.02;100.00
63903;BME280;50072;50.678;13.938;2023-12-22T03:53:05;97159.72;;;3.04;100.00
63903;BME280;50072;50.678;13.938;2023-12-22T03:55:35;97149.94;;;3.06;100.00
63903;BME280;50072;50.678;13.938;2023-12-22T03:58:07;97150.81;;;3.06;100.00
63903;BME280;50072;50.678;13.938;2023-12-22T04:00:36;97161.38;;;3.06;100.00
63903;BME280;50072;50.678;13.938;2023-12-22T04:03:01;97171.47;;;3.20;100.00
63903;BME280;50072;50.678;13.938;2023-12-22T04:05:36;97162.88;;;3.39;100.00
63903;BME280;50072;50.678;13.938;2023-12-22T04:08:06;97187.59;;;3.38;100.00
63903;BME280;50072;50.678;13.938;2023-12-22T04:10:35;97167.13;;;3.43;100.00
63903;BME280;50072;50.678;13.938;2023-12-22T04:13:07;97179.03;;;3.55;100.00
63903;BME280;50072;50.678;13.938;2023-12-22T04:15:35;97179.00;;;3.56;100.00
63903;BME280;50072;50.678;13.938;2023-12-22T04:18:05;97164.16;;;3.52;100.00
63903;BME280;50072;50.678;13.938;2023-12-22T04:20:38;97165.91;;;3.52;100.00
63903;BME280;50072;50.678;13.938;2023-12-22T04:23:05;97170.81;;;3.62;100.00
63903;BME280;50072;50.678;13.938;2023-12-22T04:25:37;97162.66;;;3.69;100.00
63903;BME280;50072;50.678;13.938;2023-12-22T04:28:05;97167.81;;;3.72;100.00
63903;BME280;50072;50.678;13.938;2023-12-22T04:30:38;97180.06;;;3.74;100.00
63903;BME280;50072;50.678;13.938;2023-12-22T04:33:06;97167.16;;;3.67;100.00
63903;BME280;50072;50.678;13.938;2023-12-22T04:35:37;97178.69;;;3.64;100.00
63903;BME280;50072;50.678;13.938;2023-12-22T04:38:05;97175.28;;;3.60;100.00
63903;BME280;50072;50.678;13.938;2023-12-22T04:40:35;97171.22;;;3.52;100.00
63903;BME280;50072;50.678;13.938;2023-12-22T04:43:07;97175.81;;;3.47;100.00
63903;BME280;50072;50.678;13.938;2023-12-22T04:45:35;97179.63;;;3.39;100.00
63903;BME280;50072;50.678;13.938;2023-12-22T04:48:07;97176.31;;;3.33;100.00
63903;BME280;50072;50.678;13.938;2023-12-22T04:50:36;97148.44;;;3.24;100.00
63903;BME280;50072;50.678;13.938;2023-12-22T04:53:05;97154.81;;;3.18;100.00
63903;BME280;50072;50.678;13.938;2023-12-22T04:55:37;97144.72;;;3.04;100.00
63903;BME280;50072;50.678;13.938;2023-12-22T04:58:03;97156.53;;;3.19;100.00
63903;BME280;50072;50.678;13.938;2023-12-22T05:00:29;97165.25;;;3.21;100.00
63903;BME280;50072;50.678;13.938;2023-12-22T05:02:54;97154.03;;;3.15;100.00
63903;BME280;50072;50.678;13.938;2023-12-22T05:05:21;97163.75;;;3.14;100.00
63903;BME280;50072;50.678;13.938;2023-12-22T05:07:47;97169.84;;;3.16;100.00
63903;BME280;50072;50.678;13.938;2023-12-22T05:10:13;97172.34;;;3.21;100.00
63903;BME280;50072;50.678;13.938;2023-12-22T05:12:38;97175.56;;;3.29;100.00
63903;BME280;50072;50.678;13.938;2023-12-22T05:15:06;97176.50;;;3.28;100.00
63903;BME280;50072;50.678;13.938;2023-12-22T05:17:31;97173.19;;;3.21;100.00
63903;BME280;50072;50.678;13.938;2023-12-22T05:19:59;97189.28;;;3.15;100.00
63903;BME280;50072;50.678;13.938;2023-12-22T05:22:26;97182.31;;;3.13;100.00
63903;BME280;50072;50.678;13.938;2023-12-22T05:24:57;97187.59;;;3.13;100.00
63903;BME280;50072;50.678;13.938;2023-12-22T05:27:23;97191.00;;;3.16;100.00
63903;BME280;50072;50.678;13.938;2023-12-22T05:29:52;97189.00;;;3.23;100.00
63903;BME280;50072;50.678;13.938;2023-12-22T05:32:17;97182.75;;;3.25;100.00
63903;BME280;50072;50.678;13.938;2023-12-22T05:34:43;97202.81;;;3.31;100.00
63903;BME280;50072;50.678;13.938;2023-12-22T05:37:09;97181.72;;;3.30;100.00
63903;BME280;50072;50.678;13.938;2023-12-22T05:39:35;97183.53;;;3.27;100.00
63903;BME280;50072;50.678;13.938;2023-12-22T05:42:01;97203.72;;;3.30;100.00
63903;BME280;50072;50.678;13.938;2023-12-22T05:44:36;97201.13;;;3.28;100.00
63903;BME280;50072;50.678;13.938;2023-12-22T05:47:03;97182.81;;;3.24;100.00
63903;BME280;50072;50.678;13.938;2023-12-22T05:49:30;97190.44;;;3.32;100.00
63903;BME280;50072;50.678;13.938;2023-12-22T05:51:56;97191.34;;;3.31;100.00
63903;BME280;50072;50.678;13.938;2023-12-22T05:54:22;97172.97;;;3.27;100.00
63903;BME280;50072;50.678;13.938;2023-12-22T05:56:52;97177.34;;;3.28;100.00
63903;BME280;50072;50.678;13.938;2023-12-22T05:59:19;97191.59;;;3.24;100.00
63903;BME280;50072;50.678;13.938;2023-12-22T06:01:45;97191.34;;;3.31;100.00
63903;BME280;50072;50.678;13.938;2023-12-22T06:04:12;97169.41;;;3.28;100.00
63903;BME280;50072;50.678;13.938;2023-12-22T06:06:38;97194.00;;;3.31;100.00
63903;BME280;50072;50.678;13.938;2023-12-22T06:09:05;97205.16;;;3.39;100.00
63903;BME280;50072;50.678;13.938;2023-12-22T06:11:31;97196.44;;;3.37;100.00
63903;BME280;50072;50.678;13.938;2023-12-22T06:13:57;97214.59;;;3.46;100.00
63903;BME280;50072;50.678;13.938;2023-12-22T06:16:23;97200.59;;;3.44;100.00
63903;BME280;50072;50.678;13.938;2023-12-22T06:18:51;97212.84;;;3.47;100.00
63903;BME280;50072;50.678;13.938;2023-12-22T06:21:17;97216.44;;;3.44;100.00
63903;BME280;50072;50.678;13.938;2023-12-22T06:23:44;97238.41;;;3.46;100.00
63903;BME280;50072;50.678;13.938;2023-12-22T06:26:11;97236.59;;;3.48;100.00
63903;BME280;50072;50.678;13.938;2023-12-22T06:28:38;97227.72;;;3.49;100.00
63903;BME280;50072;50.678;13.938;2023-12-22T06:31:06;97227.63;;;3.52;100.00
63903;BME280;50072;50.678;13.938;2023-12-22T06:33:33;97201.25;;;3.51;100.00
63903;BME280;50072;50.678;13.938;2023-12-22T06:35:59;97207.50;;;3.48;100.00
63903;BME280;50072;50.678;13.938;2023-12-22T06:38:26;97221.34;;;3.55;100.00
63903;BME280;50072;50.678;13.938;2023-12-22T06:40:51;97234.56;;;3.55;100.00
63903;BME280;50072;50.678;13.938;2023-12-22T06:43:18;97229.28;;;3.55;100.00
63903;BME280;50072;50.678;13.938;2023-12-22T06:45:44;97237.38;;;3.50;100.00
63903;BME280;50072;50.678;13.938;2023-12-22T06:48:10;97236.59;;;3.48;100.00
63903;BME280;50072;50.678;13.938;2023-12-22T06:50:36;97234.97;;;3.44;100.00
63903;BME280;50072;50.678;13.938;2023-12-22T06:53:04;97243.63;;;3.48;100.00
63903;BME280;50072;50.678;13.938;2023-12-22T06:55:31;97237.72;;;3.41;100.00
63903;BME280;50072;50.678;13.938;2023-12-22T06:57:58;97264.22;;;3.39;100.00
63903;BME280;50072;50.678;13.938;2023-12-22T07:00:24;97214.72;;;3.43;100.00
63903;BME280;50072;50.678;13.938;2023-12-22T07:02:51;97227.19;;;3.39;100.00
63903;BME280;50072;50.678;13.938;2023-12-22T07:07:51;97233.22;;;3.43;100.00
63903;BME280;50072;50.678;13.938;2023-12-22T07:10:17;97234.00;;;3.47;100.00
63903;BME280;50072;50.678;13.938;2023-12-22T07:12:43;97248.97;;;3.46;100.00
63903;BME280;50072;50.678;13.938;2023-12-22T07:15:09;97256.41;;;3.35;100.00
63903;BME280;50072;50.678;13.938;2023-12-22T07:17:37;97263.41;;;3.10;100.00
63903;BME280;50072;50.678;13.938;2023-12-22T07:20:03;97252.41;;;2.98;100.00
63903;BME280;50072;50.678;13.938;2023-12-22T07:22:30;97250.88;;;2.90;100.00
63903;BME280;50072;50.678;13.938;2023-12-22T07:24:56;97227.22;;;2.87;100.00
63903;BME280;50072;50.678;13.938;2023-12-22T07:27:22;97240.47;;;2.86;100.00
63903;BME280;50072;50.678;13.938;2023-12-22T07:29:48;97255.16;;;2.94;100.00
63903;BME280;50072;50.678;13.938;2023-12-22T07:32:15;97248.84;;;2.99;100.00
63903;BME280;50072;50.678;13.938;2023-12-22T07:34:40;97262.69;;;3.07;100.00
63903;BME280;50072;50.678;13.938;2023-12-22T07:37:07;97255.34;;;3.15;100.00
63903;BME280;50072;50.678;13.938;2023-12-22T07:39:35;97270.28;;;3.16;100.00
63903;BME280;50072;50.678;13.938;2023-12-22T07:42:01;97281.47;;;3.24;100.00
63903;BME280;50072;50.678;13.938;2023-12-22T07:44:28;97266.38;;;3.28;100.00
63903;BME280;50072;50.678;13.938;2023-12-22T07:46:58;97281.91;;;3.37;100.00
63903;BME280;50072;50.678;13.938;2023-12-22T07:49:27;97303.00;;;3.39;100.00
63903;BME280;50072;50.678;13.938;2023-12-22T07:51:53;97308.34;;;3.37;100.00
63903;BME280;50072;50.678;13.938;2023-12-22T07:54:19;97272.84;;;3.19;100.00
63903;BME280;50072;50.678;13.938;2023-12-22T07:56:45;97286.28;;;3.11;100.00
63903;BME280;50072;50.678;13.938;2023-12-22T07:59:11;97296.75;;;3.15;100.00
63903;BME280;50072;50.678;13.938;2023-12-22T08:01:38;97313.38;;;3.18;100.00
63903;BME280;50072;50.678;13.938;2023-12-22T08:04:04;97290.84;;;3.08;100.00
63903;BME280;50072;50.678;13.938;2023-12-22T08:06:31;97306.06;;;3.00;100.00
63903;BME280;50072;50.678;13.938;2023-12-22T08:08:56;97291.34;;;2.92;100.00
63903;BME280;50072;50.678;13.938;2023-12-22T08:11:22;97289.59;;;2.91;100.00
63903;BME280;50072;50.678;13.938;2023-12-22T08:13:58;97286.16;;;2.89;100.00
63903;BME280;50072;50.678;13.938;2023-12-22T08:16:29;97283.88;;;3.05;100.00
63903;BME280;50072;50.678;13.938;2023-12-22T08:18:56;97289.78;;;3.12;100.00
63903;BME280;50072;50.678;13.938;2023-12-22T08:21:24;97295.78;;;3.17;100.00
63903;BME280;50072;50.678;13.938;2023-12-22T08:23:58;97312.38;;;3.22;100.00
63903;BME280;50072;50.678;13.938;2023-12-22T08:26:36;97296.28;;;3.28;100.00
63903;BME280;50072;50.678;13.938;2023-12-22T08:29:04;97314.41;;;3.41;100.00
63903;BME280;50072;50.678;13.938;2023-12-22T08:31:31;97302.94;;;3.40;100.00
63903;BME280;50072;50.678;13.938;2023-12-22T08:33:58;97301.88;;;3.46;100.00
63903;BME280;50072;50.678;13.938;2023-12-22T08:36:24;97316.22;;;3.39;100.00
63903;BME280;50072;50.678;13.938;2023-12-22T08:38:52;97320.88;;;3.31;100.00
63903;BME280;50072;50.678;13.938;2023-12-22T08:41:19;97331.84;;;3.20;100.00
63903;BME280;50072;50.678;13.938;2023-12-22T08:43:46;97332.69;;;3.20;100.00
63903;BME280;50072;50.678;13.938;2023-12-22T08:46:14;97337.78;;;3.26;100.00
63903;BME280;50072;50.678;13.938;2023-12-22T08:48:42;97347.03;;;3.40;100.00
63903;BME280;50072;50.678;13.938;2023-12-22T08:51:11;97336.06;;;3.52;100.00
63903;BME280;50072;50.678;13.938;2023-12-22T08:53:37;97323.69;;;3.78;100.00
63903;BME280;50072;50.678;13.938;2023-12-22T08:56:05;97332.06;;;3.91;100.00
63903;BME280;50072;50.678;13.938;2023-12-22T08:58:32;97337.47;;;3.86;100.00
63903;BME280;50072;50.678;13.938;2023-12-22T09:00:59;97329.59;;;3.85;100.00
63903;BME280;50072;50.678;13.938;2023-12-22T09:03:25;97334.16;;;3.81;100.00
63903;BME280;50072;50.678;13.938;2023-12-22T09:05:52;97347.63;;;3.73;100.00
63903;BME280;50072;50.678;13.938;2023-12-22T09:08:18;97354.94;;;3.67;100.00
63903;BME280;50072;50.678;13.938;2023-12-22T09:10:45;97354.34;;;3.58;100.00
63903;BME280;50072;50.678;13.938;2023-12-22T09:13:11;97380.69;;;3.61;100.00
63903;BME280;50072;50.678;13.938;2023-12-22T09:16:06;97382.69;;;3.80;100.00
63903;BME280;50072;50.678;13.938;2023-12-22T09:18:33;97366.28;;;3.95;100.00
63903;BME280;50072;50.678;13.938;2023-12-22T09:21:08;97359.78;;;4.04;100.00
63903;BME280;50072;50.678;13.938;2023-12-22T09:23:35;97397.31;;;3.90;100.00
63903;BME280;50072;50.678;13.938;2023-12-22T09:26:06;97398.63;;;3.78;100.00
63903;BME280;50072;50.678;13.938;2023-12-22T09:28:38;97392.22;;;3.59;100.00
63903;BME280;50072;50.678;13.938;2023-12-22T09:31:09;97396.88;;;3.52;100.00
63903;BME280;50072;50.678;13.938;2023-12-22T09:33:38;97381.94;;;3.23;100.00
63903;BME280;50072;50.678;13.938;2023-12-22T09:36:06;97394.22;;;3.25;100.00
63903;BME280;50072;50.678;13.938;2023-12-22T09:38:37;97395.50;;;3.12;100.00
63903;BME280;50072;50.678;13.938;2023-12-22T09:41:05;97394.91;;;3.04;100.00
63903;BME280;50072;50.678;13.938;2023-12-22T09:43:36;97423.66;;;3.13;100.00
63903;BME280;50072;50.678;13.938;2023-12-22T09:46:07;97428.31;;;3.05;100.00
63903;BME280;50072;50.678;13.938;2023-12-22T09:48:36;97417.59;;;3.11;100.00
63903;BME280;50072;50.678;13.938;2023-12-22T09:51:07;97399.03;;;3.66;100.00
63903;BME280;50072;50.678;13.938;2023-12-22T09:53:38;97410.97;;;4.05;100.00
63903;BME280;50072;50.678;13.938;2023-12-22T09:56:06;97421.63;;;4.02;100.00
63903;BME280;50072;50.678;13.938;2023-12-22T09:58:36;97435.16;;;4.19;100.00
63903;BME280;50072;50.678;13.938;2023-12-22T10:01:06;97430.66;;;4.21;100.00
63903;BME280;50072;50.678;13.938;2023-12-22T10:03:37;97424.03;;;4.09;100.00
63903;BME280;50072;50.678;13.938;2023-12-22T10:06:05;97436.31;;;4.36;100.00
63903;BME280;50072;50.678;13.938;2023-12-22T10:08:38;97444.31;;;4.34;100.00
63903;BME280;50072;50.678;13.938;2023-12-22T10:11:06;97445.84;;;4.16;100.00
63903;BME280;50072;50.678;13.938;2023-12-22T10:13:37;97419.69;;;4.07;100.00
63903;BME280;50072;50.678;13.938;2023-12-22T10:16:06;97417.09;;;4.05;100.00
63903;BME280;50072;50.678;13.938;2023-12-22T10:18:36;97426.84;;;4.05;100.00
63903;BME280;50072;50.678;13.938;2023-12-22T10:21:06;97440.31;;;3.97;100.00
63903;BME280;50072;50.678;13.938;2023-12-22T10:23:38;97429.84;;;3.94;100.00
63903;BME280;50072;50.678;13.938;2023-12-22T10:26:06;97444.75;;;3.96;100.00
63903;BME280;50072;50.678;13.938;2023-12-22T10:28:35;97424.84;;;3.85;100.00
63903;BME280;50072;50.678;13.938;2023-12-22T10:31:08;97434.69;;;3.81;100.00
63903;BME280;50072;50.678;13.938;2023-12-22T10:33:35;97432.28;;;3.75;100.00
63903;BME280;50072;50.678;13.938;2023-12-22T10:36:07;97439.22;;;3.77;100.00
63903;BME280;50072;50.678;13.938;2023-12-22T10:38:36;97419.91;;;3.75;100.00
63903;BME280;50072;50.678;13.938;2023-12-22T10:41:06;97444.50;;;3.77;100.00
63903;BME280;50072;50.678;13.938;2023-12-22T10:43:41;97467.56;;;3.74;100.00
63903;BME280;50072;50.678;13.938;2023-12-22T10:46:09;97427.22;;;3.67;100.00
63903;BME280;50072;50.678;13.938;2023-12-22T10:48:36;97459.78;;;3.42;100.00
63903;BME280;50072;50.678;13.938;2023-12-22T10:51:09;97462.06;;;3.25;100.00
63903;BME280;50072;50.678;13.938;2023-12-22T10:53:36;97434.78;;;3.24;100.00
63903;BME280;50072;50.678;13.938;2023-12-22T10:56:06;97444.88;;;3.11;100.00
63903;BME280;50072;50.678;13.938;2023-12-22T10:58:39;97458.91;;;3.14;100.00
63903;BME280;50072;50.678;13.938;2023-12-22T11:01:07;97474.22;;;3.02;100.00
63903;BME280;50072;50.678;13.938;2023-12-22T11:03:39;97458.63;;;2.93;100.00
63903;BME280;50072;50.678;13.938;2023-12-22T11:06:06;97465.88;;;2.86;100.00
63903;BME280;50072;50.678;13.938;2023-12-22T11:08:36;97458.22;;;2.77;100.00
63903;BME280;50072;50.678;13.938;2023-12-22T11:11:15;97473.84;;;2.85;100.00
63903;BME280;50072;50.678;13.938;2023-12-22T11:13:43;97461.06;;;3.84;100.00
63903;BME280;50072;50.678;13.938;2023-12-22T11:16:09;97464.13;;;4.49;100.00
63903;BME280;50072;50.678;13.938;2023-12-22T11:18:36;97459.44;;;5.49;100.00
63903;BME280;50072;50.678;13.938;2023-12-22T11:21:09;97451.75;;;6.28;100.00
63903;BME280;50072;50.678;13.938;2023-12-22T11:23:59;97467.63;;;6.09;100.00
63903;BME280;50072;50.678;13.938;2023-12-22T11:26:28;97471.34;;;5.83;100.00
63903;BME280;50072;50.678;13.938;2023-12-22T11:29:06;97481.06;;;5.16;100.00
63903;BME280;50072;50.678;13.938;2023-12-22T11:31:35;97466.19;;;4.88;100.00
63903;BME280;50072;50.678;13.938;2023-12-22T11:34:07;97455.25;;;4.74;100.00
63903;BME280;50072;50.678;13.938;2023-12-22T11:36:34;97441.66;;;4.83;100.00
63903;BME280;50072;50.678;13.938;2023-12-22T11:39:00;97455.13;;;4.77;100.00
63903;BME280;50072;50.678;13.938;2023-12-22T11:41:32;97445.84;;;4.89;100.00
63903;BME280;50072;50.678;13.938;2023-12-22T11:43:59;97437.34;;;4.80;100.00
63903;BME280;50072;50.678;13.938;2023-12-22T11:46:26;97443.94;;;4.69;100.00
63903;BME280;50072;50.678;13.938;2023-12-22T11:48:52;97433.25;;;4.48;100.00
63903;BME280;50072;50.678;13.938;2023-12-22T11:51:19;97429.31;;;4.58;100.00
63903;BME280;50072;50.678;13.938;2023-12-22T11:53:46;97416.94;;;4.59;100.00
63903;BME280;50072;50.678;13.938;2023-12-22T11:56:14;97432.00;;;4.82;100.00
63903;BME280;50072;50.678;13.938;2023-12-22T11:58:41;97419.84;;;4.98;100.00
63903;BME280;50072;50.678;13.938;2023-12-22T12:01:12;97422.34;;;5.03;100.00
63903;BME280;50072;50.678;13.938;2023-12-22T12:03:53;97405.09;;;5.15;100.00
63903;BME280;50072;50.678;13.938;2023-12-22T12:09:01;97383.97;;;5.34;100.00
63903;BME280;50072;50.678;13.938;2023-12-22T12:14:32;97400.72;;;5.79;100.00
63903;BME280;50072;50.678;13.938;2023-12-22T12:17:07;97408.16;;;5.70;100.00
63903;BME280;50072;50.678;13.938;2023-12-22T12:19:40;97414.41;;;5.90;100.00
63903;BME280;50072;50.678;13.938;2023-12-22T12:22:11;97394.53;;;5.78;100.00
63903;BME280;50072;50.678;13.938;2023-12-22T12:24:38;97403.34;;;5.58;100.00
63903;BME280;50072;50.678;13.938;2023-12-22T12:27:05;97411.06;;;5.64;100.00
63903;BME280;50072;50.678;13.938;2023-12-22T12:29:35;97405.63;;;5.45;100.00
63903;BME280;50072;50.678;13.938;2023-12-22T12:32:06;97387.53;;;5.34;100.00
63903;BME280;50072;50.678;13.938;2023-12-22T12:34:31;97393.06;;;5.28;100.00
63903;BME280;50072;50.678;13.938;2023-12-22T12:37:04;97380.84;;;5.24;100.00
63903;BME280;50072;50.678;13.938;2023-12-22T12:39:34;97370.28;;;5.23;100.00
63903;BME280;50072;50.678;13.938;2023-12-22T12:42:01;97363.09;;;5.26;100.00
63903;BME280;50072;50.678;13.938;2023-12-22T12:44:29;97367.22;;;5.33;100.00
63903;BME280;50072;50.678;13.938;2023-12-22T12:46:58;97381.78;;;5.23;100.00
63903;BME280;50072;50.678;13.938;2023-12-22T12:49:26;97360.81;;;5.17;100.00
63903;BME280;50072;50.678;13.938;2023-12-22T12:51:56;97341.22;;;4.99;100.00
63903;BME280;50072;50.678;13.938;2023-12-22T12:54:22;97378.53;;;4.93;100.00
63903;BME280;50072;50.678;13.938;2023-12-22T12:56:50;97362.50;;;4.74;100.00
63903;BME280;50072;50.678;13.938;2023-12-22T12:59:17;97374.38;;;4.40;100.00
63903;BME280;50072;50.678;13.938;2023-12-22T13:01:47;97369.44;;;4.30;100.00
63903;BME280;50072;50.678;13.938;2023-12-22T13:04:14;97336.25;;;4.20;100.00
63903;BME280;50072;50.678;13.938;2023-12-22T13:06:48;97328.91;;;4.28;100.00
63903;BME280;50072;50.678;13.938;2023-12-22T13:09:16;97321.09;;;4.25;100.00
63903;BME280;50072;50.678;13.938;2023-12-22T13:11:45;97316.63;;;4.26;100.00